»·PEaware :: BADGR13 KEND-KEND

BADGR13 :: KEND-KEND

FLIGHT INFORMATION

Flight Status: Arrived
Operator: Unknown
More flights by this operator :: More flights under this callsign
Pilot: Abraham G. (22221)
Aircraft: BEECH AIRCRAFT T-6A TEXAN
(TEX2)
More flights by this aircraft type
Origin: KEND Vance AFB
United States
Destination: KEND Vance AFB
United States
More flights between these airports :: More routes between these airports
Route: +AVK/D0+15 END9
File this flight plan on PilotEdge
Remarks:
Altitude:
(Current/Filed)
0ft
Speed:
(Current/Filed)
0kts
Departed: 14-Sep-20 11:51 AM
Arrived: 14-Sep-20 02:55 PM
Distance/Time
Traveled:
1nm/3:04
Distance/Time
To Go:
Arrived

Flight Plot

Page will automatically refresh every two minutes.

Flight plan parsing failed; only flown route is shown


Map Options




Map Legend


Flown Route
Filed Route
Departure Airport
Arrival Airport
Navaid (VOR, NDB)
Fix

Horizontal Profiles

Position Reports

Time Latitude Longitude Heading Altitude Ground
Speed
14-Sep-20 11:36 36.346975 -97.910200 219 1279ft 0kts
14-Sep-20 11:38 36.346975 -97.910200 219 1279ft 0kts
14-Sep-20 11:43 36.346975 -97.910200 219 1279ft 0kts
14-Sep-20 11:44 36.346975 -97.910200 219 1279ft 0kts
14-Sep-20 11:47 36.346975 -97.910200 219 1279ft 0kts
14-Sep-20 11:48 36.346975 -97.910200 219 1279ft 0kts
14-Sep-20 11:49 36.346975 -97.910200 219 1279ft 0kts
14-Sep-20 11:50 36.346940 -97.910235 218 1279ft 3kts
14-Sep-20 11:51 36.331207 -97.910920 178 1709ft 156kts
14-Sep-20 11:52 36.280749 -97.900062 162 3864ft 189kts
14-Sep-20 11:53 36.237404 -97.865028 80 5060ft 231kts
14-Sep-20 11:54 36.268546 -97.794682 57 4997ft 222kts
14-Sep-20 11:55 36.303487 -97.732804 52 4977ft 219kts
14-Sep-20 11:55 36.335743 -97.688102 44 5601ft 208kts
14-Sep-20 11:57 36.388778 -97.630413 42 5535ft 219kts
14-Sep-20 11:58 36.674575 -97.198030 46 5192ft 233kts
14-Sep-20 11:59 36.717760 -97.146515 41 2433ft 162kts
14-Sep-20 11:59 36.732136 -97.109204 92 2520ft 174kts
14-Sep-20 12:00 36.711179 -97.095727 299 1870ft 118kts
14-Sep-20 12:02 36.747390 -97.099540 0 1871ft 172kts
14-Sep-20 12:02 36.750754 -97.130670 181 2625ft 220kts
14-Sep-20 12:03 36.692944 -97.131370 180 2470ft 196kts
14-Sep-20 12:04 36.695353 -97.100597 6 1740ft 108kts
14-Sep-20 12:05 36.723343 -97.099394 359 1006ft 80kts
14-Sep-20 12:06 36.762279 -97.099065 3 2526ft 178kts
14-Sep-20 12:07 36.780842 -97.131413 209 4467ft 212kts
14-Sep-20 12:08 36.723966 -97.167594 200 4562ft 235kts
14-Sep-20 12:09 36.661758 -97.196166 199 4543ft 243kts
14-Sep-20 12:10 36.423832 -97.267616 199 4543ft 243kts
14-Sep-20 12:11 36.389325 -97.264098 6 2396ft 152kts
14-Sep-20 12:12 36.390708 -97.277302 180 980ft 87kts
14-Sep-20 12:13 36.350309 -97.275681 132 2461ft 195kts
14-Sep-20 12:14 36.386860 -97.245643 1 2438ft 224kts
14-Sep-20 12:15 36.442436 -97.244326 2 2269ft 182kts
14-Sep-20 12:16 36.437892 -97.276600 182 1874ft 109kts
14-Sep-20 12:17 36.408612 -97.277229 178 1526ft 105kts
14-Sep-20 12:18 36.384527 -97.277156 179 996ft 28kts
14-Sep-20 12:19 36.383601 -97.277414 8 997ft 3kts
14-Sep-20 12:20 36.383601 -97.277414 8 997ft 3kts
14-Sep-20 12:21 36.383601 -97.277414 8 997ft 3kts
14-Sep-20 12:22 36.383601 -97.277414 8 997ft 3kts
14-Sep-20 12:23 36.383601 -97.277414 8 997ft 3kts
14-Sep-20 12:24 36.383601 -97.277414 8 997ft 3kts
14-Sep-20 12:25 36.383601 -97.277414 8 997ft 3kts
14-Sep-20 12:26 36.383601 -97.277414 8 997ft 3kts
14-Sep-20 12:27 36.383601 -97.277414 8 997ft 3kts
14-Sep-20 12:28 36.383601 -97.277414 8 997ft 3kts
14-Sep-20 12:29 36.383601 -97.277414 8 997ft 3kts
14-Sep-20 12:30 36.383601 -97.277414 8 997ft 3kts
14-Sep-20 12:31 36.383601 -97.277414 8 997ft 3kts
14-Sep-20 12:32 36.383601 -97.277414 8 997ft 3kts
14-Sep-20 12:33 36.383601 -97.277414 8 997ft 3kts
14-Sep-20 12:34 36.383601 -97.277414 8 997ft 3kts
14-Sep-20 12:35 36.383601 -97.277414 8 997ft 3kts
14-Sep-20 12:36 36.383601 -97.277414 8 997ft 3kts
14-Sep-20 12:37 36.383601 -97.277414 8 997ft 3kts
14-Sep-20 12:38 36.383601 -97.277414 8 997ft 3kts
14-Sep-20 12:39 36.383601 -97.277414 8 997ft 3kts
14-Sep-20 12:40 36.383601 -97.277414 8 997ft 3kts
14-Sep-20 12:41 36.383601 -97.277414 8 997ft 3kts
14-Sep-20 12:42 36.383601 -97.277414 8 997ft 3kts
14-Sep-20 12:43 36.383601 -97.277414 8 997ft 3kts
14-Sep-20 12:44 36.383601 -97.277414 8 997ft 3kts
14-Sep-20 12:45 36.383601 -97.277414 8 997ft 3kts
14-Sep-20 12:46 36.383601 -97.277414 8 997ft 3kts
14-Sep-20 12:47 36.383601 -97.277414 8 997ft 3kts
14-Sep-20 12:48 36.383601 -97.277414 8 997ft 3kts
14-Sep-20 12:49 36.383601 -97.277414 8 997ft 3kts
14-Sep-20 12:50 36.383601 -97.277414 8 997ft 3kts
14-Sep-20 12:51 36.383601 -97.277414 8 997ft 3kts
14-Sep-20 12:52 36.383601 -97.277414 8 997ft 3kts
14-Sep-20 12:53 36.383601 -97.277414 8 997ft 3kts
14-Sep-20 12:54 36.383601 -97.277414 8 997ft 3kts
14-Sep-20 12:55 36.383601 -97.277414 8 997ft 3kts
14-Sep-20 12:56 36.383601 -97.277414 8 997ft 3kts
14-Sep-20 12:57 36.383601 -97.277414 8 997ft 3kts
14-Sep-20 12:58 36.383601 -97.277414 8 997ft 3kts
14-Sep-20 12:59 36.383601 -97.277414 8 997ft 3kts
14-Sep-20 13:00 36.383601 -97.277414 8 997ft 3kts
14-Sep-20 13:01 36.383601 -97.277414 8 997ft 3kts
14-Sep-20 13:02 36.383601 -97.277414 8 997ft 3kts
14-Sep-20 13:03 36.383601 -97.277414 8 997ft 3kts
14-Sep-20 13:04 36.383601 -97.277414 8 997ft 3kts
14-Sep-20 13:05 36.383601 -97.277414 8 997ft 3kts
14-Sep-20 13:06 36.383601 -97.277414 8 997ft 3kts
14-Sep-20 13:07 36.383601 -97.277414 8 997ft 3kts
14-Sep-20 13:08 36.383601 -97.277414 8 997ft 3kts
14-Sep-20 13:09 36.383601 -97.277414 8 997ft 3kts
14-Sep-20 13:10 36.383601 -97.277414 8 997ft 3kts
14-Sep-20 13:11 36.383601 -97.277414 8 997ft 3kts
14-Sep-20 13:12 36.383601 -97.277414 8 997ft 3kts
14-Sep-20 13:13 36.383601 -97.277414 8 997ft 3kts
14-Sep-20 13:14 36.383601 -97.277414 8 997ft 3kts
14-Sep-20 13:15 36.383601 -97.277414 8 997ft 3kts
14-Sep-20 13:16 36.383601 -97.277414 8 997ft 3kts
14-Sep-20 13:17 36.383601 -97.277414 8 997ft 3kts
14-Sep-20 13:18 36.383601 -97.277414 8 997ft 3kts
14-Sep-20 13:19 36.383601 -97.277414 8 997ft 3kts
14-Sep-20 13:20 36.383601 -97.277414 8 997ft 3kts
14-Sep-20 13:21 36.383601 -97.277414 8 997ft 3kts
14-Sep-20 13:22 36.383601 -97.277414 8 997ft 3kts
14-Sep-20 13:23 36.383601 -97.277414 8 997ft 3kts
14-Sep-20 13:24 36.383601 -97.277414 8 997ft 3kts
14-Sep-20 13:25 36.383601 -97.277414 8 997ft 3kts
14-Sep-20 13:26 36.383601 -97.277414 8 997ft 3kts
14-Sep-20 13:27 36.383601 -97.277414 8 997ft 3kts
14-Sep-20 13:28 36.383601 -97.277414 8 997ft 3kts
14-Sep-20 13:29 36.383601 -97.277414 8 997ft 3kts
14-Sep-20 13:30 36.383601 -97.277414 8 997ft 3kts
14-Sep-20 13:31 36.383601 -97.277414 8 997ft 3kts
14-Sep-20 13:32 36.383601 -97.277414 8 997ft 3kts
14-Sep-20 13:33 36.383601 -97.277414 8 997ft 3kts
14-Sep-20 13:34 36.383601 -97.277414 8 997ft 3kts
14-Sep-20 13:35 36.383601 -97.277414 8 997ft 3kts
14-Sep-20 13:36 36.383601 -97.277414 8 997ft 3kts
14-Sep-20 13:37 36.383601 -97.277414 8 997ft 3kts
14-Sep-20 13:38 36.383601 -97.277414 8 997ft 3kts
14-Sep-20 13:40 36.383601 -97.277414 8 997ft 3kts
14-Sep-20 13:41 36.383601 -97.277414 8 997ft 3kts
14-Sep-20 13:42 36.383601 -97.277414 8 997ft 3kts
14-Sep-20 13:43 36.383601 -97.277414 8 997ft 3kts
14-Sep-20 13:44 36.383601 -97.277414 8 997ft 3kts
14-Sep-20 13:45 36.383601 -97.277414 8 997ft 3kts
14-Sep-20 13:46 36.383601 -97.277414 8 997ft 3kts
14-Sep-20 13:47 36.383601 -97.277414 8 997ft 3kts
14-Sep-20 13:48 36.383601 -97.277414 8 997ft 3kts
14-Sep-20 13:49 36.383601 -97.277414 8 997ft 3kts
14-Sep-20 13:50 36.383601 -97.277414 8 997ft 3kts
14-Sep-20 13:51 36.383601 -97.277414 8 997ft 3kts
14-Sep-20 13:52 36.383601 -97.277414 8 997ft 3kts
14-Sep-20 13:53 36.383601 -97.277414 8 997ft 3kts
14-Sep-20 13:54 36.383601 -97.277414 8 997ft 3kts
14-Sep-20 13:55 36.383601 -97.277414 8 997ft 3kts
14-Sep-20 13:56 36.383601 -97.277414 8 997ft 3kts
14-Sep-20 13:57 36.383601 -97.277414 8 997ft 3kts
14-Sep-20 13:57 36.383601 -97.277414 8 997ft 3kts
14-Sep-20 13:58 36.383601 -97.277414 8 997ft 3kts
14-Sep-20 13:59 36.383601 -97.277414 8 997ft 3kts
14-Sep-20 14:01 36.383601 -97.277414 8 997ft 3kts
14-Sep-20 14:01 36.383601 -97.277414 8 997ft 3kts
14-Sep-20 14:02 36.383601 -97.277414 8 997ft 3kts
14-Sep-20 14:03 36.383601 -97.277414 8 997ft 3kts
14-Sep-20 14:04 36.383601 -97.277414 8 997ft 3kts
14-Sep-20 14:05 36.383601 -97.277414 8 997ft 3kts
14-Sep-20 14:06 36.383601 -97.277414 8 997ft 3kts
14-Sep-20 14:07 36.383601 -97.277414 8 997ft 3kts
14-Sep-20 14:08 36.383601 -97.277414 8 997ft 3kts
14-Sep-20 14:09 36.383601 -97.277414 8 997ft 3kts
14-Sep-20 14:10 36.383601 -97.277414 8 997ft 3kts
14-Sep-20 14:11 36.383601 -97.277414 8 997ft 3kts
14-Sep-20 14:12 36.383601 -97.277414 8 997ft 3kts
14-Sep-20 14:13 36.383601 -97.277414 8 997ft 3kts
14-Sep-20 14:14 36.383601 -97.277414 8 997ft 3kts
14-Sep-20 14:15 36.383601 -97.277414 8 997ft 3kts
14-Sep-20 14:16 36.383601 -97.277414 8 997ft 3kts
14-Sep-20 14:17 36.383601 -97.277414 8 997ft 3kts
14-Sep-20 14:18 36.383601 -97.277414 8 997ft 3kts
14-Sep-20 14:19 36.383601 -97.277414 8 997ft 3kts
14-Sep-20 14:20 36.383601 -97.277414 8 997ft 3kts
14-Sep-20 14:21 36.383601 -97.277414 8 997ft 3kts
14-Sep-20 14:22 36.383601 -97.277414 8 997ft 3kts
14-Sep-20 14:23 36.383601 -97.277414 8 997ft 3kts
14-Sep-20 14:24 36.383601 -97.277414 8 997ft 3kts
14-Sep-20 14:25 36.383601 -97.277414 8 997ft 3kts
14-Sep-20 14:26 36.383601 -97.277414 8 997ft 3kts
14-Sep-20 14:27 36.383601 -97.277414 8 997ft 3kts
14-Sep-20 14:28 36.383601 -97.277414 8 997ft 3kts
14-Sep-20 14:29 36.383601 -97.277414 8 997ft 3kts
14-Sep-20 14:30 36.383601 -97.277414 8 997ft 3kts
14-Sep-20 14:31 36.383601 -97.277414 8 997ft 3kts
14-Sep-20 14:32 36.383601 -97.277414 8 997ft 3kts
14-Sep-20 14:33 36.383601 -97.277414 8 997ft 3kts
14-Sep-20 14:34 36.383601 -97.277414 8 997ft 3kts
14-Sep-20 14:35 36.383601 -97.277414 8 997ft 3kts
14-Sep-20 14:36 36.383601 -97.277414 8 997ft 3kts
14-Sep-20 14:37 36.383601 -97.277414 8 997ft 3kts
14-Sep-20 14:38 36.383601 -97.277414 8 997ft 3kts
14-Sep-20 14:40 36.383601 -97.277414 8 997ft 3kts
14-Sep-20 14:40 36.383601 -97.277414 8 997ft 3kts
14-Sep-20 14:41 36.383601 -97.277414 8 997ft 3kts
14-Sep-20 14:42 36.383601 -97.277414 8 997ft 3kts
14-Sep-20 14:43 36.383601 -97.277414 8 997ft 3kts
14-Sep-20 14:44 36.383601 -97.277414 8 997ft 3kts
14-Sep-20 14:45 36.383601 -97.277414 8 997ft 3kts
14-Sep-20 14:46 36.383601 -97.277414 8 997ft 3kts
14-Sep-20 14:47 36.383601 -97.277414 8 997ft 3kts
14-Sep-20 14:48 36.383601 -97.277414 8 997ft 3kts
14-Sep-20 14:49 36.383601 -97.277414 8 997ft 3kts
14-Sep-20 14:50 36.383601 -97.277414 8 997ft 3kts
14-Sep-20 14:51 36.383601 -97.277414 8 997ft 3kts
14-Sep-20 14:52 36.383601 -97.277414 8 997ft 3kts
14-Sep-20 14:53 36.383601 -97.277414 8 997ft 3kts
14-Sep-20 14:54 36.333430 -97.910261 270 1291ft 0kts
14-Sep-20 14:55 36.337771 -97.911033 0 1323ft 94kts
14-Sep-20 14:56 36.344365 -97.892567 184 2240ft 147kts
14-Sep-20 14:57 36.326613 -97.908611 330 1463ft 109kts
14-Sep-20 14:58 36.356322 -97.901845 93 2260ft 169kts
14-Sep-20 14:59 36.316133 -97.896540 248 2152ft 124kts
14-Sep-20 15:00 36.346038 -97.907992 357 1737ft 193kts
14-Sep-20 15:01 36.341929 -97.854338 183 2512ft 200kts
14-Sep-20 15:02 36.281211 -97.856844 209 2386ft 216kts
14-Sep-20 15:03 36.298160 -97.907117 352 2351ft 203kts
14-Sep-20 15:04 36.340511 -97.897382 163 2375ft 161kts
14-Sep-20 15:05 36.326504 -97.910558 351 1446ft 107kts
14-Sep-20 15:06 36.349421 -97.900356 145 2130ft 172kts
14-Sep-20 15:07 36.326609 -97.909304 340 1436ft 103kts
14-Sep-20 15:08 36.361591 -97.910826 356 1702ft 197kts

Navigation Log

Ident Type
Flight plan parsing failed, navigation log unavailable